Vera Bisso — WDC3027 — position and weather

sailwx.info

Track history (hours):
 
Tides and Currents Weather Stations Pressure Air Temp Water Temp Dewpoint Dewpoint Depression Visibility Wind Speed Wind Dir Waves Ship Positions

Vera Bisso

Owner: E.N. Bisso & Son, Inc, New Orleans, LA. More information available from US FCC via Universal Licensing System and Coast Guard Vessel Documentation Center.

Last reported at 2015-Feb-16 05:31 UTC. Time now 2015-Mar-30 10:40 UTC.
Position N 29°58' W 090°24'.
Warning: this ship's position is 42 days out of date.

Length 30 m; draft 6 m.

Type: Tug. MMSI: 367001730.

Date/timePositionNaut miles runAvg speedWind from/ knotsBaromVisibWave heightAir tempDewpointWater temp
2015-Feb-16 05:31N 29°58' W 090°24'1 0.5
2015-Feb-16 04:30N 29°59' W 090°24'17 0.6
2015-Feb-15 01:31N 29°55' W 090°04'4 1.4
2015-Feb-14 22:21N 29°56' W 089°59'4 4.8
2015-Feb-14 21:32N 29°56' W 090°04'43 5.4
2015-Feb-14 13:30N 30°04' W 090°53'8 7.0
2015-Feb-14 12:19N 30°09' W 090°60'0 0.0
2015-Feb-14 11:03N 30°09' W 090°60'0 0.0
2015-Feb-14 09:29N 30°09' W 090°60'  
2015-Feb-09 07:26N 30°03' W 090°36'2 0.1
2015-Feb-08 10:33N 30°03' W 090°38'4 0.2
2015-Feb-07 12:31N 30°03' W 090°33'0 0.0
2015-Feb-07 11:33N 30°03' W 090°33'0 0.0
2015-Feb-07 10:33N 30°03' W 090°33'0 0.0
2015-Feb-07 09:33N 30°03' W 090°33'2 0.9
2015-Feb-07 07:32N 30°03' W 090°36'0 0.0
2015-Feb-06 12:16N 30°03' W 090°35'0 0.2
2015-Feb-06 10:26N 30°03' W 090°35'0 0.1
2015-Feb-06 09:33N 30°03' W 090°35'0 0.1
2015-Feb-06 08:14N 30°03' W 090°35'0 0.0
2015-Feb-06 07:33N 30°03' W 090°35'  
Track history (hours):
 
Tides and Currents Weather Stations Pressure Air Temp Water Temp Dewpoint Dewpoint Depression Visibility Wind Speed Wind Dir Waves Ship Positions

Vera Bisso

Owner: E.N. Bisso & Son, Inc, New Orleans, LA. More information available from US FCC via Universal Licensing System and Coast Guard Vessel Documentation Center.

Last reported at 2015-Feb-16 05:31 UTC. Time now 2015-Mar-30 10:40 UTC.
Position N 29°58' W 090°24'.
Warning: this ship's position is 42 days out of date.

Length 30 m; draft 6 m.

Type: Tug. MMSI: 367001730.

Date/timePositionNaut miles runAvg speedWind from/ knotsBaromVisibWave heightAir tempDewpointWater temp
2015-Feb-16 05:31N 29°58' W 090°24'1 0.5
2015-Feb-16 04:30N 29°59' W 090°24'17 0.6
2015-Feb-15 01:31N 29°55' W 090°04'4 1.4
2015-Feb-14 22:21N 29°56' W 089°59'4 4.8
2015-Feb-14 21:32N 29°56' W 090°04'43 5.4
2015-Feb-14 13:30N 30°04' W 090°53'8 7.0
2015-Feb-14 12:19N 30°09' W 090°60'0 0.0
2015-Feb-14 11:03N 30°09' W 090°60'0 0.0
2015-Feb-14 09:29N 30°09' W 090°60'  
2015-Feb-09 07:26N 30°03' W 090°36'2 0.1
2015-Feb-08 10:33N 30°03' W 090°38'4 0.2
2015-Feb-07 12:31N 30°03' W 090°33'0 0.0
2015-Feb-07 11:33N 30°03' W 090°33'0 0.0
2015-Feb-07 10:33N 30°03' W 090°33'0 0.0
2015-Feb-07 09:33N 30°03' W 090°33'2 0.9
2015-Feb-07 07:32N 30°03' W 090°36'0 0.0
2015-Feb-06 12:16N 30°03' W 090°35'0 0.2
2015-Feb-06 10:26N 30°03' W 090°35'0 0.1
2015-Feb-06 09:33N 30°03' W 090°35'0 0.1
2015-Feb-06 08:14N 30°03' W 090°35'0 0.0
2015-Feb-06 07:33N 30°03' W 090°35'  

Dump ship's entire track history